createdAt,value
2019-04-21T00:04:12.472Z,15.80
2019-04-21T00:07:11.803Z,14.23
2019-04-21T00:10:07.647Z,18.10
2019-04-21T00:12:29.938Z,13.43
2019-04-21T00:15:09.780Z,17.03
2019-04-21T00:17:31.608Z,19.30
2019-04-21T00:23:09.481Z,14.40
2019-04-21T00:25:33.919Z,15.80
2019-04-21T00:28:32.782Z,15.57
2019-04-21T00:31:18.177Z,15.53
2019-04-21T00:36:28.041Z,11.70
2019-04-21T00:41:48.508Z,20.27
2019-04-21T00:44:27.486Z,13.80
2019-04-21T00:47:26.703Z,14.53
2019-04-21T00:49:56.858Z,15.57
2019-04-21T00:56:09.218Z,14.27
2019-04-21T00:58:48.064Z,13.87
2019-04-21T01:01:43.504Z,13.20
2019-04-21T01:04:37.078Z,12.70
2019-04-21T01:09:45.317Z,18.27
2019-04-21T01:12:41.773Z,14.00
2019-04-21T01:18:01.093Z,11.73
2019-04-21T01:20:47.522Z,12.77
2019-04-21T01:23:16.755Z,13.37
2019-04-21T01:28:50.862Z,17.10
2019-04-21T01:31:36.671Z,12.20
2019-04-21T01:34:15.405Z,16.33
2019-04-21T01:36:38.693Z,14.70
2019-04-21T01:39:19.693Z,16.43
2019-04-21T01:44:55.800Z,17.60
2019-04-21T01:47:40.642Z,14.83
2019-04-21T01:50:31.778Z,17.07
2019-04-21T02:01:26.246Z,14.67
2019-04-21T02:04:13.992Z,15.30
2019-04-21T02:06:44.529Z,15.63
2019-04-21T02:09:10.131Z,16.33
2019-04-21T02:11:43.354Z,12.87
2019-04-21T02:14:15.673Z,14.80
2019-04-21T02:16:43.669Z,14.43
2019-04-21T02:19:28.951Z,13.67
2019-04-21T02:22:28.747Z,16.10
2019-04-21T02:25:13.989Z,14.17
2019-04-21T02:28:08.349Z,15.60
2019-04-21T02:31:22.606Z,11.47
2019-04-21T02:33:57.502Z,19.50
2019-04-21T02:37:17.507Z,10.50
2019-04-21T02:39:57.370Z,12.57
2019-04-21T02:51:32.014Z,13.30
2019-04-21T02:59:28.521Z,12.70
2019-04-21T03:02:28.749Z,14.63
2019-04-21T03:05:24.948Z,12.50
2019-04-21T03:13:19.502Z,15.33
2019-04-21T03:18:42.104Z,15.23
2019-04-21T03:23:57.624Z,9.67
2019-04-21T03:28:54.493Z,13.77
2019-04-21T03:32:09.585Z,13.30
2019-04-21T03:34:28.843Z,15.23
2019-04-21T03:39:18.299Z,8.50
2019-04-21T03:42:01.799Z,12.10
2019-04-21T03:44:43.635Z,11.30
2019-04-21T03:47:30.818Z,10.93
2019-04-21T03:50:08.868Z,10.10
2019-04-21T03:53:00.740Z,12.00
2019-04-21T03:56:14.743Z,11.57
2019-04-21T04:04:35.615Z,9.20
2019-04-21T04:10:08.424Z,11.20
2019-04-21T04:17:54.254Z,15.53
2019-04-21T04:20:42.424Z,9.27
2019-04-21T04:23:21.134Z,15.73
2019-04-21T04:25:53.651Z,12.10
2019-04-21T04:28:38.471Z,11.03
2019-04-21T04:31:35.450Z,11.23
2019-04-21T04:51:43.954Z,14.80
2019-04-21T04:54:07.201Z,16.13
2019-04-21T04:56:30.732Z,13.97
2019-04-21T05:04:30.247Z,9.20
2019-04-21T05:07:09.097Z,9.17
2019-04-21T05:10:24.302Z,9.70
2019-04-21T05:13:06.658Z,11.50
2019-04-21T05:16:26.408Z,13.23
2019-04-21T05:18:54.355Z,8.27
2019-04-21T05:24:13.833Z,9.70
2019-04-21T05:26:46.118Z,11.80
2019-04-21T05:29:30.971Z,11.17
2019-04-21T05:35:02.266Z,12.60
2019-04-21T05:37:47.404Z,12.57
2019-04-21T05:43:28.536Z,11.67
2019-04-21T05:46:40.720Z,8.03
2019-04-21T05:49:29.339Z,8.90
2019-04-21T05:52:08.241Z,10.73
2019-04-21T05:55:12.682Z,8.33
2019-04-21T05:57:33.444Z,10.20
2019-04-21T06:00:12.183Z,12.20
2019-04-21T06:02:36.901Z,9.33
2019-04-21T06:05:26.289Z,12.50
2019-04-21T06:08:23.341Z,13.10
2019-04-21T06:10:52.964Z,8.60
2019-04-21T06:13:27.930Z,8.67
2019-04-21T06:16:05.849Z,11.87
2019-04-21T06:18:43.338Z,10.20
2019-04-21T06:21:28.180Z,14.33
2019-04-21T06:24:15.747Z,12.43
2019-04-21T06:27:08.188Z,12.13
2019-04-21T06:29:55.825Z,8.40
2019-04-21T06:32:38.551Z,11.53
2019-04-21T06:37:49.434Z,8.20
2019-04-21T06:40:28.740Z,10.43
2019-04-21T06:43:08.233Z,12.13
2019-04-21T06:45:49.464Z,9.90
2019-04-21T06:48:21.127Z,11.77
2019-04-21T06:50:46.643Z,10.17
2019-04-21T06:53:16.511Z,6.97
2019-04-21T06:56:08.195Z,10.53
2019-04-21T06:58:51.873Z,6.20
2019-04-21T07:01:42.252Z,8.17
2019-04-21T07:04:20.927Z,10.90
2019-04-21T07:07:00.517Z,7.20
2019-04-21T07:10:10.797Z,7.33
2019-04-21T07:12:42.904Z,7.53
2019-04-21T07:15:11.344Z,8.60
2019-04-21T07:17:43.595Z,6.63
2019-04-21T07:20:29.746Z,9.07
2019-04-21T07:25:54.272Z,8.70
2019-04-21T07:31:20.806Z,6.63
2019-04-21T07:39:19.506Z,11.43
2019-04-21T07:41:43.782Z,8.73
2019-04-21T07:44:10.296Z,6.53
2019-04-21T07:46:42.654Z,6.37
2019-04-21T07:52:33.544Z,6.87
2019-04-21T07:58:02.674Z,7.47
2019-04-21T08:00:56.468Z,7.10
2019-04-21T08:06:12.820Z,9.90
2019-04-21T08:08:42.241Z,5.20
2019-04-21T08:11:12.229Z,6.70
2019-04-21T08:14:00.787Z,4.70
2019-04-21T08:16:51.096Z,5.43
2019-04-21T08:19:21.783Z,4.80
2019-04-21T08:22:00.103Z,6.70
2019-04-21T08:24:19.791Z,6.60
2019-04-21T08:26:51.002Z,4.77
2019-04-21T08:29:29.717Z,11.03
2019-04-21T08:31:59.302Z,6.17
2019-04-21T08:37:12.630Z,4.57
2019-04-21T08:39:57.050Z,6.00
2019-04-21T08:42:33.171Z,5.57
2019-04-21T08:48:12.096Z,3.53
2019-04-21T08:50:45.928Z,11.73
2019-04-21T08:53:13.718Z,6.27
2019-04-21T08:56:21.251Z,4.73
2019-04-21T08:59:12.687Z,5.43
2019-04-21T09:02:02.407Z,4.93
2019-04-21T09:04:48.031Z,5.20
2019-04-21T09:09:47.473Z,7.10
2019-04-21T09:12:34.517Z,4.00
2019-04-21T09:15:11.441Z,6.77
2019-04-21T09:17:29.721Z,5.00
2019-04-21T09:20:13.629Z,4.30
2019-04-21T09:22:38.214Z,7.87
2019-04-21T09:25:17.943Z,4.03
2019-04-21T09:27:59.127Z,7.23
2019-04-21T09:30:53.492Z,4.53
2019-04-21T09:33:18.587Z,7.37
2019-04-21T09:35:54.073Z,4.60
2019-04-21T09:38:27.569Z,7.90
2019-04-21T09:40:50.777Z,4.80
2019-04-21T09:43:27.269Z,4.90
2019-04-21T09:46:06.742Z,4.60
2019-04-21T09:48:47.802Z,5.20
2019-04-21T09:51:06.483Z,7.13
2019-04-21T09:54:01.857Z,7.70
2019-04-21T10:03:15.784Z,4.20
2019-04-21T10:08:18.954Z,11.10
2019-04-21T10:11:07.761Z,8.77
2019-04-21T10:13:36.599Z,5.13
2019-04-21T10:16:45.084Z,4.60
2019-04-21T10:22:21.594Z,4.63
2019-04-21T10:24:49.995Z,5.37
2019-04-21T10:27:37.522Z,4.53
2019-04-21T10:30:46.860Z,3.20
2019-04-21T10:33:16.654Z,3.00
2019-04-21T10:38:42.349Z,5.37
2019-04-21T10:41:03.676Z,2.83
2019-04-21T10:43:51.416Z,4.77
2019-04-21T10:46:40.502Z,3.53
2019-04-21T10:49:10.441Z,7.33
2019-04-21T10:51:39.473Z,3.20
2019-04-21T10:54:08.284Z,4.33
2019-04-21T10:56:42.367Z,3.70
2019-04-21T10:59:08.142Z,11.77
2019-04-21T11:01:56.808Z,3.07
2019-04-21T11:07:45.396Z,3.40
2019-04-21T11:10:44.040Z,3.37
2019-04-21T11:13:12.560Z,6.80
2019-04-21T11:16:01.278Z,5.00
2019-04-21T11:18:31.513Z,8.33
2019-04-21T11:21:00.715Z,2.70
2019-04-21T11:23:50.139Z,2.77
2019-04-21T11:26:37.934Z,6.60
2019-04-21T11:29:27.070Z,4.13
2019-04-21T11:31:56.805Z,7.97
2019-04-21T11:34:25.622Z,15.53
2019-04-21T11:36:54.389Z,5.90
2019-04-21T11:44:53.472Z,2.80
2019-04-21T11:50:01.192Z,4.73
2019-04-21T11:52:49.304Z,3.47
2019-04-21T11:55:41.697Z,7.20
2019-04-21T11:58:48.122Z,6.17
2019-04-21T12:01:36.001Z,3.33
2019-04-21T12:04:25.509Z,3.10
2019-04-21T12:07:13.393Z,4.13
2019-04-21T12:09:43.805Z,3.37
2019-04-21T12:12:13.450Z,2.70
2019-04-21T12:17:29.979Z,3.30
2019-04-21T12:22:47.667Z,3.20
2019-04-21T12:25:57.004Z,2.87
2019-04-21T12:31:39.282Z,4.37
2019-04-21T12:37:02.484Z,3.23
2019-04-21T12:39:30.917Z,3.77
2019-04-21T12:42:18.621Z,4.17
2019-04-21T12:45:07.486Z,3.10
2019-04-21T12:47:37.694Z,3.13
2019-04-21T12:50:47.834Z,3.00
2019-04-21T12:53:17.848Z,3.63
2019-04-21T12:55:48.002Z,6.30
2019-04-21T12:58:17.312Z,3.10
2019-04-21T13:00:47.193Z,2.60
2019-04-21T13:03:17.435Z,3.67
2019-04-21T13:05:47.567Z,2.70
2019-04-21T13:08:17.659Z,8.63
2019-04-21T13:11:09.351Z,5.00
2019-04-21T13:13:37.710Z,5.83
2019-04-21T13:19:13.479Z,2.43
2019-04-21T13:24:29.606Z,3.67
2019-04-21T13:27:01.587Z,3.20
2019-04-21T13:29:30.285Z,3.00
2019-04-21T13:32:00.689Z,2.90
2019-04-21T13:34:29.784Z,2.60
2019-04-21T13:36:59.340Z,4.93
2019-04-21T13:40:09.634Z,3.53
2019-04-21T13:42:43.833Z,9.60
2019-04-21T13:45:47.813Z,3.70
2019-04-21T13:48:36.883Z,3.27
2019-04-21T13:51:07.154Z,3.07
2019-04-21T13:53:55.562Z,2.70
2019-04-21T13:56:44.749Z,2.57
2019-04-21T13:59:14.082Z,5.33
2019-04-21T14:02:24.728Z,3.50
2019-04-21T14:07:28.121Z,2.80
2019-04-21T14:10:02.572Z,3.00
2019-04-21T14:12:27.541Z,2.50
2019-04-21T14:14:56.756Z,5.03
2019-04-21T14:17:44.666Z,2.50
2019-04-21T14:20:53.381Z,2.40
2019-04-21T14:23:46.011Z,2.30
2019-04-21T14:26:32.166Z,2.87
2019-04-21T14:29:21.737Z,2.80
2019-04-21T14:32:10.615Z,6.50
2019-04-21T14:34:41.881Z,4.73
2019-04-21T14:37:10.906Z,3.03
2019-04-21T14:42:16.024Z,3.17
2019-04-21T14:44:45.183Z,2.50
2019-04-21T14:50:22.319Z,2.40
2019-04-21T14:53:31.738Z,3.43
2019-04-21T14:58:35.488Z,4.20
2019-04-21T15:01:23.922Z,3.77
2019-04-21T15:03:53.366Z,2.47
2019-04-21T15:06:23.115Z,2.40
2019-04-21T15:08:53.201Z,2.23
2019-04-21T15:11:22.224Z,3.23
2019-04-21T15:13:51.418Z,3.10
2019-04-21T15:16:40.870Z,4.40
2019-04-21T15:19:10.798Z,3.17
2019-04-21T15:22:00.597Z,5.50
2019-04-21T15:24:30.178Z,2.60
2019-04-21T15:27:00.969Z,7.13
2019-04-21T15:29:48.902Z,8.03
2019-04-21T15:32:36.771Z,3.23
2019-04-21T15:35:47.039Z,2.90
2019-04-21T15:38:35.963Z,3.07
2019-04-21T15:44:01.281Z,2.90
2019-04-21T15:46:31.685Z,3.17
2019-04-21T15:48:59.010Z,3.00
2019-04-21T15:51:49.521Z,6.80
2019-04-21T15:54:38.681Z,4.70
2019-04-21T15:57:27.977Z,3.60
2019-04-21T16:00:36.360Z,4.87
2019-04-21T16:03:24.805Z,2.77
2019-04-21T16:06:13.836Z,3.70
2019-04-21T16:09:04.706Z,4.00
2019-04-21T16:11:53.509Z,4.00
2019-04-21T16:14:22.747Z,3.07
2019-04-21T16:16:53.665Z,5.63
2019-04-21T16:19:23.063Z,4.67
2019-04-21T16:24:27.528Z,3.23
2019-04-21T16:29:52.056Z,5.60
2019-04-21T16:32:21.610Z,3.83
2019-04-21T16:34:57.967Z,3.70
2019-04-21T16:37:41.444Z,3.53
2019-04-21T16:40:56.377Z,2.83
2019-04-21T16:43:40.990Z,2.57
2019-04-21T16:48:45.914Z,3.57
2019-04-21T16:51:15.442Z,3.20
2019-04-21T16:54:04.021Z,3.60
2019-04-21T16:59:30.650Z,3.60
2019-04-21T17:02:18.645Z,5.20
2019-04-21T17:11:04.021Z,3.67
2019-04-21T17:13:39.830Z,3.70
2019-04-21T17:16:48.269Z,3.70
2019-04-21T17:19:09.208Z,2.87
2019-04-21T17:21:28.232Z,4.60
2019-04-21T17:26:46.465Z,5.30
2019-04-21T17:32:26.332Z,3.40
2019-04-21T17:35:12.163Z,3.53
2019-04-21T17:38:01.647Z,3.27
2019-04-21T17:41:21.907Z,2.63
2019-04-21T17:43:41.628Z,3.03
2019-04-21T17:46:13.634Z,2.67
2019-04-21T17:49:01.149Z,4.27
2019-04-21T17:52:11.380Z,4.37
2019-04-21T18:03:25.133Z,2.90
2019-04-21T18:05:42.198Z,3.83
2019-04-21T18:08:19.266Z,3.40
2019-04-21T18:13:35.704Z,3.93
2019-04-21T18:19:36.443Z,3.10
2019-04-21T18:22:45.481Z,15.30
2019-04-21T18:25:58.236Z,4.27
2019-04-21T18:28:20.864Z,5.60
2019-04-21T18:31:36.471Z,8.33
2019-04-21T18:36:57.406Z,9.03
2019-04-21T18:39:57.474Z,5.07
2019-04-21T18:42:53.208Z,6.77
2019-04-21T18:54:05.095Z,9.83
2019-04-21T18:56:17.690Z,9.00
2019-04-21T18:58:46.658Z,5.97
2019-04-21T19:01:22.710Z,9.03
2019-04-21T19:04:13.400Z,5.17
2019-04-21T19:10:03.631Z,4.40
2019-04-21T19:12:16.703Z,4.30
2019-04-21T19:17:50.584Z,4.53
2019-04-21T19:22:29.391Z,7.13
2019-04-21T19:24:59.793Z,11.87
2019-04-21T19:27:38.047Z,10.93
2019-04-21T19:30:15.437Z,11.30
2019-04-21T19:32:25.368Z,10.83
2019-04-21T19:34:40.788Z,13.73
2019-04-21T19:37:13.428Z,21.20
2019-04-21T19:40:07.741Z,8.77
2019-04-21T19:42:55.902Z,6.30
2019-04-21T19:46:13.966Z,8.13
2019-04-21T19:48:52.732Z,7.70
2019-04-21T19:51:10.566Z,18.10
2019-04-21T19:53:56.068Z,13.30
2019-04-21T19:56:37.032Z,7.97
2019-04-21T19:59:48.511Z,8.60
2019-04-21T20:02:34.430Z,7.60
2019-04-21T20:05:52.166Z,10.70
2019-04-21T20:08:31.962Z,14.10
2019-04-21T20:11:08.515Z,13.13
2019-04-21T20:13:45.358Z,19.07
2019-04-21T20:16:01.419Z,12.50
2019-04-21T20:18:23.273Z,8.50
2019-04-21T20:20:46.005Z,25.90
2019-04-21T20:26:59.972Z,18.90
2019-04-21T20:34:52.190Z,5.10
2019-04-21T20:37:14.995Z,4.13
2019-04-21T20:39:54.977Z,4.53
2019-04-21T20:42:47.012Z,6.77
2019-04-21T20:46:02.409Z,6.30
2019-04-21T20:52:06.034Z,5.27
2019-04-21T20:54:49.318Z,11.20
2019-04-21T20:57:21.718Z,5.63
2019-04-21T21:02:26.506Z,4.77
2019-04-21T21:05:09.274Z,3.53
2019-04-21T21:11:07.967Z,7.83
2019-04-21T21:19:19.149Z,5.80
2019-04-21T21:21:29.840Z,5.17
2019-04-21T21:24:28.924Z,4.90
2019-04-21T21:27:12.989Z,4.60
2019-04-21T21:29:43.008Z,4.57
2019-04-21T21:34:56.874Z,7.63
2019-04-21T21:37:49.541Z,7.47
2019-04-21T21:42:57.337Z,3.77
2019-04-21T21:45:30.778Z,4.40
2019-04-21T21:48:16.087Z,5.23
2019-04-21T21:50:56.671Z,3.73
2019-04-21T21:53:38.179Z,7.03
2019-04-21T21:56:46.868Z,5.10
2019-04-21T21:59:21.854Z,4.40
2019-04-21T22:02:34.977Z,4.23
2019-04-21T22:08:10.286Z,7.87
2019-04-21T22:10:41.077Z,4.47
2019-04-21T22:13:14.679Z,7.33
2019-04-21T22:16:04.847Z,7.53
2019-04-21T22:19:07.929Z,8.87
2019-04-21T22:21:36.494Z,6.23
2019-04-21T22:23:58.038Z,6.13
2019-04-21T22:26:19.055Z,6.27
2019-04-21T22:28:49.707Z,5.93
2019-04-21T22:31:23.405Z,18.27
2019-04-21T22:34:12.222Z,7.93
2019-04-21T22:37:16.544Z,4.87
2019-04-21T22:40:02.221Z,6.47
2019-04-21T22:42:47.361Z,6.57
2019-04-21T22:45:47.338Z,8.70
2019-04-21T22:48:20.118Z,9.23
2019-04-21T22:50:46.734Z,5.73
2019-04-21T22:53:39.971Z,4.67
2019-04-21T22:56:52.994Z,4.93
2019-04-21T22:59:34.202Z,6.90
2019-04-21T23:02:44.172Z,6.80
2019-04-21T23:05:53.823Z,5.30
2019-04-21T23:08:45.296Z,4.63
2019-04-21T23:11:12.889Z,10.83
2019-04-21T23:13:45.031Z,6.70
2019-04-21T23:16:13.933Z,4.30
2019-04-21T23:19:37.653Z,14.50
2019-04-21T23:22:27.868Z,4.60
2019-04-21T23:28:22.195Z,4.40
2019-04-21T23:31:21.436Z,6.20
2019-04-21T23:33:48.424Z,4.40
2019-04-21T23:36:21.032Z,4.23
2019-04-21T23:38:50.108Z,5.37
2019-04-21T23:41:43.706Z,6.77
2019-04-21T23:44:11.363Z,5.77
2019-04-21T23:47:01.420Z,5.30
2019-04-21T23:52:16.208Z,5.50
2019-04-21T23:54:45.313Z,4.70
2019-04-21T23:57:39.732Z,4.80
